Time;durP1;ratioP1;P1;durP2;ratioP2;P2;SDS_P1;SDS_P2;PMS_P1;PMS_P2;Temp;Humidity;BMP_temperature;BMP_pressure;BME280_temperature;BME280_humidity;BME280_pressure;Samples;Min_cycle;Max_cycle;Signal;HPM_P1;HPM_P2
2022/09/25 00:00:27;;;;;;;6.60;2.55;;;;;;;11.11;100.00;101474.44;5029565;28;20028;-65
2022/09/25 00:02:52;;;;;;;7.68;2.25;;;;;;;11.10;100.00;101480.47;5029612;28;20400;-65
2022/09/25 00:05:17;;;;;;;6.28;2.17;;;;;;;11.07;100.00;101473.44;5029134;28;20029;-65
2022/09/25 00:07:43;;;;;;;7.82;2.30;;;;;;;11.06;100.00;101476.88;5028935;28;20460;-65
2022/09/25 00:10:08;;;;;;;5.40;2.28;;;;;;;11.04;100.00;101479.38;5028367;28;20021;-65
2022/09/25 00:12:34;;;;;;;5.80;2.55;;;;;;;11.03;100.00;101485.41;5029029;28;20048;-66
2022/09/25 00:15:00;;;;;;;6.47;2.72;;;;;;;11.01;100.00;101489.63;5028921;28;20029;-65
2022/09/25 00:17:25;;;;;;;6.80;2.65;;;;;;;11.01;100.00;101494.81;5028918;28;20029;-65
2022/09/25 00:19:51;;;;;;;4.25;2.63;;;;;;;11.00;100.00;101493.06;5028917;28;20018;-65
2022/09/25 00:22:21;;;;;;;5.40;2.15;;;;;;;11.01;100.00;101493.97;5028588;28;20474;-65
2022/09/25 00:24:46;;;;;;;7.25;2.53;;;;;;;11.01;100.00;101494.81;5028401;28;20052;-65
2022/09/25 00:27:12;;;;;;;5.93;2.20;;;;;;;10.99;100.00;101496.47;5029011;28;20025;-65
2022/09/25 00:29:39;;;;;;;5.68;2.80;;;;;;;10.96;100.00;101488.56;5029016;28;20372;-65
2022/09/25 00:32:06;;;;;;;8.60;2.97;;;;;;;10.94;100.00;101492.81;5028461;28;20017;-65
2022/09/25 00:34:31;;;;;;;6.57;2.42;;;;;;;10.92;100.00;101499.63;5028860;28;20033;-65
2022/09/25 00:36:57;;;;;;;5.38;2.40;;;;;;;10.88;100.00;101488.25;5029141;28;20017;-65
2022/09/25 00:39:23;;;;;;;4.80;2.10;;;;;;;10.88;100.00;101495.16;5028790;28;20500;-65
2022/09/25 00:41:48;;;;;;;4.55;2.28;;;;;;;10.86;100.00;101491.63;5028286;28;20781;-65
2022/09/25 00:44:59;;;;;;;4.80;2.30;;;;;;;10.83;100.00;101501.88;5028285;28;20091;-65
2022/09/25 00:47:47;;;;;;;4.13;1.92;;;;;;;10.80;100.00;101490.53;5025842;28;20045;-65
2022/09/25 00:50:18;;;;;;;7.72;2.17;;;;;;;10.79;100.00;101493.94;5028823;28;20025;-65
2022/09/25 00:52:44;;;;;;;8.40;3.05;;;;;;;10.75;100.00;101483.38;5028950;28;20083;-65
2022/09/25 00:55:11;;;;;;;9.77;2.67;;;;;;;10.74;100.00;101490.28;5028554;28;20575;-65
2022/09/25 00:57:39;;;;;;;10.65;2.42;;;;;;;10.74;100.00;101494.59;5028004;28;20044;-65
2022/09/25 01:00:10;;;;;;;8.40;2.80;;;;;;;10.71;100.00;101484.97;5028257;28;20048;-65
2022/09/25 01:02:41;;;;;;;5.18;2.20;;;;;;;10.68;100.00;101495.22;5028131;28;20052;-65
2022/09/25 01:05:10;;;;;;;5.20;2.33;;;;;;;10.68;100.00;101497.81;5028255;28;20037;-65
2022/09/25 01:07:39;;;;;;;5.97;2.17;;;;;;;10.67;100.00;101498.59;5027641;28;20033;-66
2022/09/25 01:10:07;;;;;;;7.53;2.22;;;;;;;10.65;100.00;101495.09;5028392;28;20104;-65
2022/09/25 01:12:37;;;;;;;6.75;2.75;;;;;;;10.62;100.00;101494.94;5027623;28;20040;-65
2022/09/25 01:15:06;;;;;;;4.22;2.28;;;;;;;10.61;100.00;101495.78;5027642;28;20032;-65
2022/09/25 01:17:42;;;;;;;15.85;3.72;;;;;;;10.57;100.00;101495.66;5027967;28;20426;-65
2022/09/25 01:20:30;;;;;;;5.65;2.05;;;;;;;10.53;100.00;101493.75;5027842;28;20072;-65
2022/09/25 01:23:41;;;;;;;6.97;2.20;;;;;;;10.51;100.00;101495.38;5028501;28;20083;-65
2022/09/25 01:26:12;;;;;;;10.32;2.38;;;;;;;10.49;100.00;101498.75;5027217;28;20212;-65
2022/09/25 01:28:52;;;;;;;5.47;2.50;;;;;;;10.44;100.00;101506.25;5027795;28;20041;-65
2022/09/25 01:31:27;;;;;;;7.80;2.72;;;;;;;10.40;100.00;101497.47;5027599;28;20037;-65
2022/09/25 01:34:02;;;;;;;3.55;2.40;;;;;;;10.39;100.00;101498.31;5027767;28;20068;-65
2022/09/25 01:36:46;;;;;;;7.78;2.38;;;;;;;10.37;100.00;101504.22;5027054;28;20072;-65
2022/09/25 01:39:26;;;;;;;5.75;2.70;;;;;;;10.33;100.00;101504.09;5027784;28;20029;-65
2022/09/25 01:42:18;;;;;;;8.07;2.70;;;;;;;10.31;100.00;101504.84;5027574;28;20030;-65
2022/09/25 01:44:55;;;;;;;6.82;2.53;;;;;;;10.28;100.00;101500.41;5028231;28;20043;-65
2022/09/25 01:47:25;;;;;;;8.10;3.17;;;;;;;10.28;100.00;101509.88;5027733;28;20057;-65
2022/09/25 01:49:56;;;;;;;8.82;2.75;;;;;;;10.25;100.00;101509.75;5027450;28;20029;-65
2022/09/25 01:52:27;;;;;;;5.00;1.95;;;;;;;10.20;100.00;101510.44;5009402;28;20029;-65
2022/09/25 01:54:59;;;;;;;4.05;2.30;;;;;;;10.17;100.00;101517.19;5027258;28;20033;-65
2022/09/25 01:57:30;;;;;;;8.85;3.40;;;;;;;10.16;100.00;101513.72;5027401;28;20474;-65
2022/09/25 02:00:04;;;;;;;5.97;2.78;;;;;;;10.12;100.00;101516.09;5027728;28;20026;-65
2022/09/25 02:02:36;;;;;;;5.78;2.97;;;;;;;10.07;100.00;101515.91;5026978;28;20354;-64
2022/09/25 02:05:11;;;;;;;6.57;2.83;;;;;;;10.03;100.00;101517.47;5027026;28;20013;-65
2022/09/25 02:07:42;;;;;;;9.35;2.85;;;;;;;9.99;100.00;101507.78;5027086;28;20100;-65
2022/09/25 02:10:30;;;;;;;4.93;2.50;;;;;;;9.96;100.00;101510.22;5030720;28;20017;-65
2022/09/25 02:13:04;;;;;;;8.02;3.05;;;;;;;9.89;100.00;101511.66;5030852;28;20478;-65
2022/09/25 02:15:38;;;;;;;5.47;2.45;;;;;;;9.84;100.00;101516.63;5030867;28;20025;-65
2022/09/25 02:21:21;;;;;;;7.38;2.88;;;;;;;9.74;100.00;101504.06;5031422;28;20547;-65
2022/09/25 02:23:52;;;;;;;8.02;2.40;;;;;;;9.70;100.00;101504.72;5030773;28;20064;-65
2022/09/25 02:26:29;;;;;;;4.85;3.20;;;;;;;9.68;100.00;101506.34;5031287;28;20382;-65
2022/09/25 02:28:56;;;;;;;6.75;3.05;;;;;;;9.64;100.00;101509.63;5031147;28;20091;-65
2022/09/25 02:31:29;;;;;;;6.53;2.83;;;;;;;9.59;100.00;101507.72;5031392;28;20025;-65
2022/09/25 02:33:55;;;;;;;6.25;2.60;;;;;;;9.55;100.00;101510.97;5030649;28;20029;-65
2022/09/25 02:36:22;;;;;;;6.13;3.42;;;;;;;9.50;100.00;101507.28;5030709;28;20087;-65
2022/09/25 02:38:50;;;;;;;6.20;2.63;;;;;;;9.47;100.00;101508.03;5030841;28;20026;-65
2022/09/25 02:41:24;;;;;;;6.65;3.08;;;;;;;9.43;100.00;101507.78;5030563;28;20056;-65
2022/09/25 02:44:04;;;;;;;5.75;2.80;;;;;;;9.40;100.00;101508.56;5030668;28;20045;-64
2022/09/25 02:46:36;;;;;;;8.00;3.45;;;;;;;9.37;100.00;101511.88;5031008;28;20374;-65
2022/09/25 02:49:26;;;;;;;7.15;3.00;;;;;;;9.36;100.00;101504.94;5031019;28;20041;-65
2022/09/25 02:52:05;;;;;;;5.28;3.40;;;;;;;9.35;100.00;101512.63;5030758;28;20068;-65
2022/09/25 02:54:39;;;;;;;11.35;2.92;;;;;;;9.32;100.00;101513.34;5031679;28;20060;-65
2022/09/25 02:57:11;;;;;;;6.97;2.80;;;;;;;9.32;100.00;101512.47;5030624;28;20026;-65
2022/09/25 02:59:43;;;;;;;7.75;2.95;;;;;;;9.28;100.00;101501.09;5030019;28;20469;-65
2022/09/25 03:02:11;;;;;;;7.00;3.08;;;;;;;9.23;100.00;101494.78;5030806;28;20529;-65
2022/09/25 03:04:38;;;;;;;7.55;3.22;;;;;;;9.18;100.00;101499.75;5012543;28;20028;-65
2022/09/25 03:07:05;;;;;;;6.50;2.70;;;;;;;9.13;100.00;101486.63;5030372;28;20469;-65
2022/09/25 03:09:34;;;;;;;13.82;3.75;;;;;;;9.12;100.00;101490.00;5030564;28;20029;-65
2022/09/25 03:12:02;;;;;;;9.68;3.05;;;;;;;9.10;100.00;101485.59;5030249;28;20052;-65
2022/09/25 03:14:27;;;;;;;5.07;3.05;;;;;;;9.10;100.00;101501.09;5012236;28;20026;-65
2022/09/25 03:16:55;;;;;;;7.15;2.97;;;;;;;9.08;100.00;101489.78;5029794;28;20370;-65
2022/09/25 03:19:23;;;;;;;7.28;3.28;;;;;;;9.06;100.00;101494.88;5029529;28;20028;-65
2022/09/25 03:21:49;;;;;;;5.20;2.83;;;;;;;9.04;100.00;101496.50;5029969;28;20417;-65
2022/09/25 03:24:15;;;;;;;8.80;2.80;;;;;;;9.01;100.00;101497.22;5030066;28;20025;-65
2022/09/25 03:26:41;;;;;;;7.00;2.80;;;;;;;8.99;100.00;101498.00;5030193;28;20108;-65
2022/09/25 03:29:07;;;;;;;6.43;2.58;;;;;;;8.97;100.00;101499.59;5029605;28;20055;-65
2022/09/25 03:31:33;;;;;;;7.35;2.67;;;;;;;8.96;100.00;101503.88;5029914;28;20108;-65
2022/09/25 03:33:58;;;;;;;8.70;2.60;;;;;;;8.93;100.00;101508.91;5029609;28;20096;-65
2022/09/25 03:36:26;;;;;;;5.45;3.00;;;;;;;8.91;100.00;101507.03;5029644;28;20481;-65
2022/09/25 03:38:56;;;;;;;5.20;3.20;;;;;;;8.86;100.00;101512.88;5030249;28;20462;-65
2022/09/25 03:41:22;;;;;;;6.90;2.60;;;;;;;8.84;100.00;101503.28;5029657;28;20241;-65
2022/09/25 03:43:50;;;;;;;5.15;2.90;;;;;;;8.79;100.00;101504.75;5029503;28;20587;-65
2022/09/25 03:46:19;;;;;;;6.90;2.75;;;;;;;8.76;100.00;101500.31;5029391;28;20025;-65
2022/09/25 03:48:45;;;;;;;6.70;3.50;;;;;;;8.68;100.00;101499.03;5029604;28;20310;-66
2022/09/25 03:51:11;;;;;;;5.13;3.20;;;;;;;8.63;100.00;101507.44;5029608;28;20053;-65
2022/09/25 03:53:37;;;;;;;9.00;3.10;;;;;;;8.57;100.00;101504.56;5029590;28;20591;-65
2022/09/25 03:56:06;;;;;;;7.50;3.08;;;;;;;8.56;100.00;101505.38;5029041;28;20017;-65
2022/09/25 03:58:32;;;;;;;6.22;3.28;;;;;;;8.50;100.00;101498.16;5029559;28;20034;-65
2022/09/25 04:00:57;;;;;;;6.63;3.20;;;;;;;8.47;100.00;101502.28;5029303;28;20041;-64
2022/09/25 04:03:27;;;;;;;3.78;2.70;;;;;;;8.46;100.00;101503.06;5029360;28;20026;-65
2022/09/25 04:05:54;;;;;;;6.97;3.55;;;;;;;8.43;100.00;101513.25;5029799;28;20056;-65
2022/09/25 04:08:19;;;;;;;6.95;4.78;;;;;;;8.40;100.00;101501.94;5029314;28;20083;-65
2022/09/25 04:10:44;;;;;;;7.22;3.05;;;;;;;8.38;100.00;101507.84;5029222;28;20436;-65
2022/09/25 04:13:11;;;;;;;5.65;3.10;;;;;;;8.32;100.00;101513.59;5028814;28;20048;-65
2022/09/25 04:15:38;;;;;;;5.53;3.50;;;;;;;8.29;100.00;101503.97;5029559;28;20047;-65
2022/09/25 04:18:04;;;;;;;5.72;3.08;;;;;;;8.23;100.00;101498.50;5028804;28;20024;-65
2022/09/25 04:20:29;;;;;;;8.30;3.10;;;;;;;8.20;100.00;101505.19;5028815;28;20029;-65
2022/09/25 04:22:54;;;;;;;8.75;3.38;;;;;;;8.16;100.00;101501.56;5029117;28;20029;-64
2022/09/25 04:25:20;;;;;;;5.75;3.30;;;;;;;8.13;100.00;101496.25;5028604;28;20486;-65
2022/09/25 04:27:47;;;;;;;7.03;3.58;;;;;;;8.07;100.00;101494.22;5029340;28;20227;-65
2022/09/25 04:30:12;;;;;;;6.47;3.25;;;;;;;8.05;100.00;101495.84;5028916;28;20152;-64
2022/09/25 04:35:21;;;;;;;6.40;3.47;;;;;;;8.00;100.00;101499.88;5028364;28;20127;-64
2022/09/25 04:37:47;;;;;;;6.55;3.50;;;;;;;7.99;100.00;101492.91;5028498;28;20501;-65
2022/09/25 04:40:12;;;;;;;6.45;3.50;;;;;;;7.97;100.00;101499.72;5028627;28;20032;-64
2022/09/25 04:42:38;;;;;;;8.15;3.85;;;;;;;7.98;100.00;101506.63;5028170;28;20053;-64
2022/09/25 04:45:04;;;;;;;13.23;4.53;;;;;;;7.96;100.00;101498.81;5028566;28;20074;-64
2022/09/25 04:47:29;;;;;;;6.10;3.55;;;;;;;7.94;100.00;101500.44;5029142;28;20029;-65
2022/09/25 04:49:55;;;;;;;8.73;4.60;;;;;;;7.91;100.00;101490.84;5028600;28;20029;-65
2022/09/25 04:52:20;;;;;;;6.95;3.88;;;;;;;7.89;100.00;101492.44;5028417;28;20030;-65
2022/09/25 04:54:46;;;;;;;7.65;3.83;;;;;;;7.87;100.00;101494.06;5028618;28;20116;-64
2022/09/25 04:57:17;;;;;;;6.45;4.10;;;;;;;7.88;100.00;101495.81;5027884;28;20549;-65
2022/09/25 04:59:42;;;;;;;7.15;3.80;;;;;;;7.88;100.00;101495.81;5028306;28;20029;-65
2022/09/25 05:02:08;;;;;;;10.05;4.00;;;;;;;7.84;100.00;101488.75;5028427;28;20029;-65
2022/09/25 05:04:33;;;;;;;5.10;3.35;;;;;;;7.82;100.00;101492.91;5027740;28;20143;-65
2022/09/25 05:06:58;;;;;;;5.03;3.63;;;;;;;7.79;100.00;101492.72;5028491;28;20032;-64
2022/09/25 05:09:24;;;;;;;11.25;4.65;;;;;;;7.75;100.00;101493.41;5027937;28;20066;-64
2022/09/25 05:11:49;;;;;;;4.95;4.25;;;;;;;7.71;100.00;101487.19;5027699;28;20033;-65
2022/09/25 05:14:14;;;;;;;7.55;4.68;;;;;;;7.67;100.00;101491.28;5026814;28;20068;-65
2022/09/25 05:16:39;;;;;;;6.97;4.45;;;;;;;7.64;100.00;101491.13;5027342;28;20037;-65
2022/09/25 05:19:05;;;;;;;9.10;4.53;;;;;;;7.57;100.00;101479.56;5037124;28;20484;-65
2022/09/25 05:21:31;;;;;;;5.93;4.32;;;;;;;7.54;100.00;101484.56;5030581;28;20136;-65
2022/09/25 05:23:56;;;;;;;6.97;4.30;;;;;;;7.52;100.00;101482.72;5034495;28;20074;-65
2022/09/25 05:26:22;;;;;;;5.50;4.40;;;;;;;7.50;100.00;101479.16;5023970;28;20056;-64
2022/09/25 05:28:50;;;;;;;7.35;5.07;;;;;;;7.50;100.00;101484.31;5024369;28;20013;-64
2022/09/25 05:31:16;;;;;;;5.97;4.22;;;;;;;7.50;100.00;101486.91;5025140;28;20029;-64
2022/09/25 05:33:44;;;;;;;7.90;4.60;;;;;;;7.47;100.00;101481.53;5026242;28;20025;-64
2022/09/25 05:36:11;;;;;;;6.30;3.92;;;;;;;7.43;100.00;101481.38;5027011;28;20417;-64
2022/09/25 05:38:38;;;;;;;4.90;4.43;;;;;;;7.41;100.00;101485.56;5039338;28;20025;-65
2022/09/25 05:41:06;;;;;;;8.88;4.70;;;;;;;7.41;100.00;101483.00;5032459;28;20462;-65
2022/09/25 05:43:33;;;;;;;6.68;4.55;;;;;;;7.41;100.00;101488.16;5031904;28;20043;-65
2022/09/25 05:45:58;;;;;;;5.22;4.72;;;;;;;7.42;100.00;101491.63;5026643;28;20377;-64
2022/09/25 05:48:24;;;;;;;7.85;5.13;;;;;;;7.40;100.00;101488.97;5026666;28;20152;-64
2022/09/25 05:50:53;;;;;;;6.43;5.13;;;;;;;7.40;100.00;101491.53;5008672;28;20448;-65
2022/09/25 05:53:19;;;;;;;8.20;5.30;;;;;;;7.41;100.00;101489.84;5026525;28;20047;-65
2022/09/25 05:55:52;;;;;;;7.40;5.20;;;;;;;7.41;100.00;101498.47;5026760;28;20028;-65
2022/09/25 05:58:17;;;;;;;5.25;4.75;;;;;;;7.41;100.00;101492.44;5027039;28;20078;-65
2022/09/25 06:00:43;;;;;;;6.75;4.88;;;;;;;7.39;100.00;101497.50;5026050;28;20025;-64
2022/09/25 06:03:09;;;;;;;9.52;6.25;;;;;;;7.41;100.00;101495.03;5026417;28;20029;-64
2022/09/25 06:05:35;;;;;;;6.60;5.13;;;;;;;7.41;100.00;101498.47;5026899;28;20112;-65
2022/09/25 06:08:00;;;;;;;7.05;5.38;;;;;;;7.43;100.00;101504.59;5026968;28;20029;-65
2022/09/25 06:10:25;;;;;;;6.60;5.85;;;;;;;7.44;100.00;101498.66;5026823;28;20075;-65
2022/09/25 06:12:54;;;;;;;7.82;5.47;;;;;;;7.46;100.00;101503.91;5031593;28;20025;-64
2022/09/25 06:15:22;;;;;;;10.23;6.00;;;;;;;7.47;100.00;101497.91;5026384;28;20041;-65
2022/09/25 06:17:48;;;;;;;8.77;6.05;;;;;;;7.50;100.00;101492.06;5026815;28;20079;-64
2022/09/25 06:20:13;;;;;;;12.02;7.95;;;;;;;7.53;100.00;101498.28;5026574;28;20025;-64
2022/09/25 06:22:39;;;;;;;11.82;7.95;;;;;;;7.55;100.00;101501.84;5026813;28;20068;-64
2022/09/25 06:25:04;;;;;;;14.40;7.47;;;;;;;7.60;100.00;101504.66;5009121;28;20024;-64
2022/09/25 06:27:30;;;;;;;8.88;6.78;;;;;;;7.63;100.00;101498.75;5026556;28;20105;-64
2022/09/25 06:29:55;;;;;;;7.35;6.63;;;;;;;7.65;100.00;101500.63;5026542;28;20067;-65
2022/09/25 06:32:22;;;;;;;9.25;6.82;;;;;;;7.69;100.00;101507.75;5026815;28;20021;-65
2022/09/25 06:34:47;;;;;;;9.20;6.63;;;;;;;7.75;100.00;101501.13;5026224;28;20030;-65
2022/09/25 06:37:12;;;;;;;7.85;6.03;;;;;;;7.80;100.00;101503.16;5026765;28;20124;-65
2022/09/25 06:39:38;;;;;;;10.25;6.70;;;;;;;7.86;100.00;101497.41;5027718;28;20470;-65
2022/09/25 06:42:03;;;;;;;7.82;6.45;;;;;;;7.92;100.00;101497.75;5027712;28;20265;-65
2022/09/25 06:44:28;;;;;;;7.25;6.55;;;;;;;8.00;100.00;101511.09;5027084;28;20095;-65
2022/09/25 06:46:54;;;;;;;7.65;6.82;;;;;;;8.04;100.00;101500.09;5026797;28;20056;-64
2022/09/25 06:49:20;;;;;;;10.77;6.60;;;;;;;8.12;100.00;101500.53;5026045;28;20371;-65
2022/09/25 06:51:45;;;;;;;11.13;7.05;;;;;;;8.16;100.00;101507.63;5026542;28;20026;-64
2022/09/25 06:54:11;;;;;;;9.30;7.10;;;;;;;8.24;100.00;101509.72;5026515;28;20028;-64
2022/09/25 06:56:36;;;;;;;10.70;7.40;;;;;;;8.29;100.00;101514.31;5029435;28;20029;-64
2022/09/25 06:59:02;;;;;;;8.00;6.32;;;;;;;8.37;100.00;101517.28;5030252;28;20018;-65
2022/09/25 07:01:27;;;;;;;10.45;7.07;;;;;;;8.44;100.00;101520.22;5029887;28;20512;-65
2022/09/25 07:03:52;;;;;;;9.23;7.32;;;;;;;8.52;100.00;101521.47;5029952;28;20579;-65
2022/09/25 07:06:20;;;;;;;10.13;6.55;;;;;;;8.58;100.00;101511.47;5012206;28;20036;-65
2022/09/25 07:08:47;;;;;;;9.27;6.78;;;;;;;8.65;100.00;101518.72;5029419;28;20075;-65
2022/09/25 07:11:20;;;;;;;10.00;7.30;;;;;;;8.70;100.00;101516.41;5030038;28;20101;-64
2022/09/25 07:13:48;;;;;;;9.20;6.22;;;;;;;8.77;100.00;101507.25;5029988;28;20396;-65
2022/09/25 07:16:16;;;;;;;9.18;6.95;;;;;;;8.87;100.00;101508.59;5030292;28;20025;-65
2022/09/25 07:18:43;;;;;;;10.07;6.88;;;;;;;8.95;100.00;101516.72;5029915;28;20499;-64
2022/09/25 07:21:19;;;;;;;10.65;7.40;;;;;;;9.15;100.00;101519.41;5029424;28;20025;-65
2022/09/25 07:23:49;;;;;;;12.13;8.50;;;;;;;9.46;100.00;101523.50;5029575;28;20515;-65
2022/09/25 07:26:21;;;;;;;8.02;7.15;;;;;;;9.81;100.00;101518.16;5029723;28;20036;-64
2022/09/25 07:28:51;;;;;;;10.32;7.25;;;;;;;10.20;100.00;101522.50;5029471;28;20473;-64
2022/09/25 07:31:19;;;;;;;10.77;9.05;;;;;;;10.89;100.00;101523.75;5029268;28;20029;-65
2022/09/25 07:33:45;;;;;;;9.30;8.18;;;;;;;11.79;100.00;101522.03;5028904;28;20065;-65
2022/09/25 07:36:11;;;;;;;9.20;6.32;;;;;;;12.65;100.00;101528.59;5029249;28;20112;-65
2022/09/25 07:38:37;;;;;;;6.00;5.07;;;;;;;13.31;100.00;101523.78;5029075;28;20446;-65
2022/09/25 07:41:08;;;;;;;5.90;4.40;;;;;;;13.97;100.00;101522.28;5029404;28;20048;-65
2022/09/25 07:43:36;;;;;;;6.60;4.30;;;;;;;14.54;100.00;101520.38;5028605;28;20402;-65
2022/09/25 07:46:01;;;;;;;4.82;3.40;;;;;;;15.20;100.00;101527.25;5028654;28;20217;-66
2022/09/25 07:48:29;;;;;;;6.55;2.90;;;;;;;15.68;100.00;101524.81;5028585;28;20075;-65
2022/09/25 07:50:58;;;;;;;3.92;2.67;;;;;;;16.11;99.18;101524.88;5028651;28;20111;-65
2022/09/25 07:53:23;;;;;;;4.75;2.58;;;;;;;16.40;95.33;101515.81;5028805;28;20030;-65
2022/09/25 07:55:49;;;;;;;4.60;2.75;;;;;;;16.51;93.71;101523.88;5028854;28;20578;-65
2022/09/25 07:58:18;;;;;;;5.28;2.63;;;;;;;16.87;89.25;101519.25;5028705;28;20469;-65
2022/09/25 08:00:43;;;;;;;4.95;2.80;;;;;;;16.98;88.66;101514.19;5041034;28;20278;-65
2022/09/25 08:03:10;;;;;;;4.75;2.55;;;;;;;17.22;87.22;101511.09;5017289;28;20025;-63
2022/09/25 08:05:35;;;;;;;6.07;2.42;;;;;;;17.45;85.01;101510.53;5033986;28;20079;-63
2022/09/25 08:08:01;;;;;;;4.72;2.35;;;;;;;17.76;84.16;101515.31;5027590;28;20026;-63
2022/09/25 08:10:26;;;;;;;3.92;2.30;;;;;;;18.11;80.89;101506.97;5027869;28;20022;-63
2022/09/25 08:12:51;;;;;;;2.88;2.03;;;;;;;18.19;79.15;101514.09;5026612;28;20087;-63
2022/09/25 08:15:16;;;;;;;3.13;2.25;;;;;;;18.08;81.24;101512.19;5027482;28;20041;-63
2022/09/25 08:17:42;;;;;;;3.45;1.95;;;;;;;18.27;79.43;101512.44;5031572;28;20372;-64
2022/09/25 08:20:08;;;;;;;5.93;1.98;;;;;;;18.49;78.86;101515.28;5039902;28;20033;-64
2022/09/25 08:22:34;;;;;;;4.10;1.38;;;;;;;18.60;76.55;101507.53;5045343;28;20176;-64
2022/09/25 08:25:01;;;;;;;3.42;1.73;;;;;;;18.76;74.73;101505.91;5044973;28;20024;-63
2022/09/25 08:27:27;;;;;;;3.53;1.63;;;;;;;18.75;75.10;101506.75;5042784;28;20468;-64
2022/09/25 08:29:52;;;;;;;2.90;1.20;;;;;;;18.71;73.73;101510.22;5033498;28;20036;-64
2022/09/25 08:32:18;;;;;;;2.13;1.50;;;;;;;18.77;74.46;101507.66;5036596;28;20401;-65
2022/09/25 08:34:43;;;;;;;2.72;1.38;;;;;;;18.94;73.16;101509.56;5028194;28;20033;-66
2022/09/25 08:37:09;;;;;;;4.63;1.30;;;;;;;18.98;71.58;101505.19;5030883;28;20027;-66
2022/09/25 08:39:34;;;;;;;4.93;1.65;;;;;;;18.89;73.75;101501.63;5026999;28;20666;-65
2022/09/25 08:42:00;;;;;;;4.40;1.70;;;;;;;18.77;72.72;101505.03;5025272;28;21281;-64
2022/09/25 08:44:37;;;;;;;6.00;1.60;;;;;;;18.87;72.94;101508.59;5026757;28;20052;-64
2022/09/25 08:50:05;;;;;;;2.83;1.25;;;;;;;19.09;71.42;101508.75;5028383;28;20099;-63
2022/09/25 08:52:31;;;;;;;5.55;1.40;;;;;;;19.26;69.74;101515.91;5028431;28;20032;-63
2022/09/25 08:54:57;;;;;;;4.20;1.42;;;;;;;19.14;70.50;101509.69;5027578;28;20037;-63
2022/09/25 08:57:33;;;;;;;5.60;1.40;;;;;;;19.06;71.66;101512.25;5028175;28;20029;-63
2022/09/25 09:00:03;;;;;;;6.53;1.60;;;;;;;19.10;70.44;101514.91;5027385;28;20028;-63
2022/09/25 09:02:39;;;;;;;4.97;0.97;;;;;;;19.01;69.68;101515.72;5009808;28;20055;-63
2022/09/25 09:05:14;;;;;;;6.15;1.40;;;;;;;18.89;69.27;101506.88;5027830;28;20021;-63
2022/09/25 09:07:44;;;;;;;6.10;1.50;;;;;;;18.79;70.72;101510.28;5027828;28;20030;-63
2022/09/25 09:10:36;;;;;;;5.60;1.10;;;;;;;18.67;71.17;101509.31;5027419;28;20108;-63
2022/09/25 09:13:23;;;;;;;4.88;0.82;;;;;;;18.62;70.12;101502.28;5026194;28;20567;-64
2022/09/25 09:15:51;;;;;;;3.05;0.93;;;;;;;18.58;71.52;101506.63;5025187;28;20076;-62
2022/09/25 09:18:28;;;;;;;5.22;1.00;;;;;;;18.53;73.47;101497.84;5008863;28;20370;-64
2022/09/25 09:21:09;;;;;;;3.33;1.10;;;;;;;18.42;72.26;101492.47;5026804;28;20055;-64
2022/09/25 09:23:53;;;;;;;;;;;;;;;18.40;74.51;101492.47;5026870;28;20055;-64
2022/09/25 09:26:28;;;;;;;3.75;1.23;;;;;;;18.33;73.96;101493.28;5026348;28;20363;-64
2022/09/25 09:29:09;;;;;;;4.32;1.08;;;;;;;18.20;72.58;101493.16;5026659;28;20187;-64
2022/09/25 09:32:00;;;;;;;3.70;1.10;;;;;;;17.90;72.14;101505.00;5024248;28;20021;-64
2022/09/25 09:34:43;;;;;;;5.88;1.10;;;;;;;17.63;72.10;101498.53;5019993;28;20029;-63
2022/09/25 09:37:23;;;;;;;3.83;0.68;;;;;;;17.55;75.00;101494.94;5032035;28;20025;-64
2022/09/25 09:40:45;;;;;;;4.72;0.90;;;;;;;17.46;75.28;101486.13;5027208;28;20508;-64
2022/09/25 09:43:45;;;;;;;2.35;0.68;;;;;;;17.37;72.21;101491.22;5040614;28;20049;-63
2022/09/25 09:46:23;;;;;;;3.05;0.70;;;;;;;17.35;74.29;101487.69;5033420;28;20035;-63
2022/09/25 09:49:13;;;;;;;4.88;0.90;;;;;;;17.30;73.79;101486.75;5036495;28;20479;-63
2022/09/25 09:51:54;;;;;;;4.38;1.00;;;;;;;17.21;75.36;101480.53;5044535;28;20104;-63
2022/09/25 09:54:34;;;;;;;4.88;1.05;;;;;;;17.14;75.31;101491.78;5040215;28;20030;-63
2022/09/25 09:57:03;;;;;;;6.43;1.25;;;;;;;17.10;75.18;101482.06;5033011;28;20095;-63
2022/09/25 09:59:38;;;;;;;1.67;0.73;;;;;;;17.03;76.13;101479.38;5026594;28;20053;-63
2022/09/25 10:02:31;;;;;;;3.53;0.88;;;;;;;16.90;74.02;101480.03;5035308;28;20037;-63
2022/09/25 10:04:58;;;;;;;3.63;1.00;;;;;;;16.85;75.28;101482.59;5026175;28;20033;-64
2022/09/25 10:07:27;;;;;;;4.53;1.00;;;;;;;16.78;75.26;101486.81;5038648;28;20067;-64
2022/09/25 10:09:53;;;;;;;3.67;0.93;;;;;;;16.82;75.76;101487.75;5044601;28;20397;-64
2022/09/25 10:12:27;;;;;;;4.15;0.85;;;;;;;16.82;72.54;101479.03;5038460;28;20041;-65
2022/09/25 10:14:54;;;;;;;4.13;0.70;;;;;;;16.87;73.08;101480.88;5038648;28;20037;-64
2022/09/25 10:17:23;;;;;;;5.68;1.15;;;;;;;16.93;74.29;101473.09;5038806;28;20104;-64
2022/09/25 10:19:54;;;;;;;4.00;0.50;;;;;;;17.04;73.31;101473.28;5043132;28;20385;-63
2022/09/25 10:22:24;;;;;;;2.42;0.63;;;;;;;17.16;72.52;101466.50;5027694;28;20457;-63
2022/09/25 10:25:00;;;;;;;2.28;0.43;;;;;;;17.24;72.31;101474.44;5026369;28;20540;-63
2022/09/25 10:27:32;;;;;;;2.30;0.60;;;;;;;17.26;69.81;101473.63;5025759;28;20036;-63
2022/09/25 10:30:21;;;;;;;6.03;0.98;;;;;;;17.14;69.52;101466.44;5027274;28;20030;-63
2022/09/25 10:33:00;;;;;;;3.22;0.82;;;;;;;17.04;70.50;101467.16;5016964;28;20037;-64
2022/09/25 10:35:37;;;;;;;2.80;0.80;;;;;;;16.98;71.14;101467.06;5030480;28;20021;-63
2022/09/25 10:38:03;;;;;;;2.30;0.68;;;;;;;17.06;70.42;101470.66;5029979;28;20151;-63
2022/09/25 10:40:35;;;;;;;1.52;0.50;;;;;;;17.32;73.27;101466.72;5039322;28;20049;-63
2022/09/25 10:43:15;;;;;;;3.65;0.68;;;;;;;17.64;71.50;101471.50;5030063;28;20159;-63
2022/09/25 10:45:40;;;;;;;4.47;1.05;;;;;;;17.80;67.93;101466.44;5029417;28;20029;-63
2022/09/25 10:51:16;;;;;;;4.65;0.60;;;;;;;17.63;67.87;101472.34;5019112;28;20471;-63
2022/09/25 10:53:42;;;;;;;4.88;0.95;;;;;;;17.44;68.30;101461.63;5045301;28;20116;-63
2022/09/25 10:56:13;;;;;;;2.35;0.88;;;;;;;17.39;68.63;101460.69;5039477;28;20096;-64
2022/09/25 10:58:46;;;;;;;4.57;0.60;;;;;;;17.50;65.99;101459.09;5038027;28;20031;-64
2022/09/25 11:01:13;;;;;;;2.80;0.90;;;;;;;17.65;64.25;101457.53;5042685;28;20096;-64
2022/09/25 11:03:44;;;;;;;2.47;0.70;;;;;;;17.92;67.72;101463.09;5044234;28;20041;-63
2022/09/25 11:06:22;;;;;;;1.90;0.68;;;;;;;18.21;66.59;101466.03;5045809;28;20084;-63
2022/09/25 11:08:55;;;;;;;4.38;0.68;;;;;;;18.22;64.01;101467.78;5048015;28;20639;-63
2022/09/25 11:11:25;;;;;;;2.40;0.88;;;;;;;18.09;64.26;101458.03;5045686;28;20078;-63
2022/09/25 11:13:54;;;;;;;1.13;0.43;;;;;;;17.85;65.47;101463.00;5046129;28;20017;-64
2022/09/25 11:16:20;;;;;;;2.45;0.68;;;;;;;17.84;66.11;101466.50;5037316;28;20043;-63
2022/09/25 11:18:51;;;;;;;3.50;0.70;;;;;;;17.94;65.67;101466.59;5029618;28;20018;-63
2022/09/25 11:21:39;;;;;;;2.72;0.45;;;;;;;18.10;61.89;101460.66;5029076;28;20032;-63
2022/09/25 11:24:13;;;;;;;2.95;0.55;;;;;;;18.24;61.07;101459.97;5033877;28;20052;-63
2022/09/25 11:27:04;;;;;;;1.50;0.40;;;;;;;18.41;65.59;101452.25;5029446;28;20029;-64
2022/09/25 11:29:53;;;;;;;2.08;0.50;;;;;;;18.65;64.19;101455.94;5025472;28;20021;-63
2022/09/25 11:32:38;;;;;;;3.55;0.52;;;;;;;18.85;62.64;101457.84;5029395;28;20108;-63
2022/09/25 11:35:25;;;;;;;2.67;0.70;;;;;;;19.08;64.87;101449.25;5028499;28;20108;-62
2022/09/25 11:38:01;;;;;;;1.48;0.45;;;;;;;18.96;60.71;101450.91;5027004;28;20037;-62
2022/09/25 11:43:50;;;;;;;3.38;0.60;;;;;;;18.57;60.62;101452.38;5031027;28;20044;-62
2022/09/25 11:46:26;;;;;;;1.40;0.50;;;;;;;18.54;57.98;101447.09;4988492;28;20041;-62
2022/09/25 11:49:14;;;;;;;1.73;0.50;;;;;;;18.59;58.82;101440.13;5028473;28;20113;-62
2022/09/25 11:51:42;;;;;;;1.08;0.47;;;;;;;18.79;59.00;101439.41;5029227;28;20032;-62
2022/09/25 11:54:22;;;;;;;1.27;0.40;;;;;;;18.99;60.25;101433.41;5028810;28;20547;-62